sensor_id;sensor_type;location;lat;lon;timestamp;P1;durP1;ratioP1;P2;durP2;ratioP2
27113;SDS011;14648;49.730;8.614;2023-04-03T00:01:18;2.40;;;2.20;;
27113;SDS011;14648;49.730;8.614;2023-04-03T00:03:44;2.87;;;2.10;;
27113;SDS011;14648;49.730;8.614;2023-04-03T00:06:11;2.50;;;2.40;;
27113;SDS011;14648;49.730;8.614;2023-04-03T00:08:37;5.53;;;2.40;;
27113;SDS011;14648;49.730;8.614;2023-04-03T00:11:04;3.27;;;2.50;;
27113;SDS011;14648;49.730;8.614;2023-04-03T00:13:31;5.27;;;2.77;;
27113;SDS011;14648;49.730;8.614;2023-04-03T00:15:58;2.83;;;2.63;;
27113;SDS011;14648;49.730;8.614;2023-04-03T00:18:24;2.70;;;2.50;;
27113;SDS011;14648;49.730;8.614;2023-04-03T00:20:50;3.33;;;2.00;;
27113;SDS011;14648;49.730;8.614;2023-04-03T00:23:15;2.67;;;2.47;;
27113;SDS011;14648;49.730;8.614;2023-04-03T00:25:41;2.70;;;2.50;;
27113;SDS011;14648;49.730;8.614;2023-04-03T00:28:07;3.37;;;1.97;;
27113;SDS011;14648;49.730;8.614;2023-04-03T00:30:34;3.33;;;2.03;;
27113;SDS011;14648;49.730;8.614;2023-04-03T00:33:00;4.87;;;2.70;;
27113;SDS011;14648;49.730;8.614;2023-04-03T00:35:27;3.17;;;2.87;;
27113;SDS011;14648;49.730;8.614;2023-04-03T00:37:53;2.73;;;2.43;;
27113;SDS011;14648;49.730;8.614;2023-04-03T00:40:21;3.50;;;3.20;;
27113;SDS011;14648;49.730;8.614;2023-04-03T00:42:51;2.90;;;2.50;;
27113;SDS011;14648;49.730;8.614;2023-04-03T00:45:23;2.23;;;2.00;;
27113;SDS011;14648;49.730;8.614;2023-04-03T00:47:53;2.63;;;2.03;;
27113;SDS011;14648;49.730;8.614;2023-04-03T00:50:20;2.47;;;2.27;;
27113;SDS011;14648;49.730;8.614;2023-04-03T00:52:46;2.97;;;2.30;;
27113;SDS011;14648;49.730;8.614;2023-04-03T00:55:14;2.67;;;2.50;;
27113;SDS011;14648;49.730;8.614;2023-04-03T00:57:40;3.00;;;2.27;;
27113;SDS011;14648;49.730;8.614;2023-04-03T01:00:08;2.60;;;2.40;;
27113;SDS011;14648;49.730;8.614;2023-04-03T01:02:37;2.80;;;2.60;;
27113;SDS011;14648;49.730;8.614;2023-04-03T01:05:05;4.03;;;2.70;;
27113;SDS011;14648;49.730;8.614;2023-04-03T01:07:32;3.57;;;2.50;;
27113;SDS011;14648;49.730;8.614;2023-04-03T01:10:03;2.67;;;2.50;;
27113;SDS011;14648;49.730;8.614;2023-04-03T01:12:35;2.67;;;2.47;;
27113;SDS011;14648;49.730;8.614;2023-04-03T01:15:05;20.73;;;3.93;;
27113;SDS011;14648;49.730;8.614;2023-04-03T01:17:44;3.80;;;3.03;;
27113;SDS011;14648;49.730;8.614;2023-04-03T01:25:36;2.93;;;2.57;;
27113;SDS011;14648;49.730;8.614;2023-04-03T01:28:06;2.77;;;2.30;;
27113;SDS011;14648;49.730;8.614;2023-04-03T01:30:48;2.80;;;2.47;;
27113;SDS011;14648;49.730;8.614;2023-04-03T01:33:28;2.57;;;2.40;;
27113;SDS011;14648;49.730;8.614;2023-04-03T01:35:54;2.43;;;2.23;;
27113;SDS011;14648;49.730;8.614;2023-04-03T01:38:20;3.63;;;3.10;;
27113;SDS011;14648;49.730;8.614;2023-04-03T01:40:46;5.70;;;2.53;;
27113;SDS011;14648;49.730;8.614;2023-04-03T01:43:11;3.40;;;2.20;;
27113;SDS011;14648;49.730;8.614;2023-04-03T01:45:37;3.67;;;2.70;;
27113;SDS011;14648;49.730;8.614;2023-04-03T01:48:03;3.10;;;2.00;;
27113;SDS011;14648;49.730;8.614;2023-04-03T01:50:29;2.27;;;2.17;;
27113;SDS011;14648;49.730;8.614;2023-04-03T01:52:55;2.70;;;2.50;;
27113;SDS011;14648;49.730;8.614;2023-04-03T01:55:21;2.30;;;2.20;;
27113;SDS011;14648;49.730;8.614;2023-04-03T01:57:46;3.07;;;2.50;;
27113;SDS011;14648;49.730;8.614;2023-04-03T02:00:12;1.83;;;1.73;;
27113;SDS011;14648;49.730;8.614;2023-04-03T02:02:39;3.07;;;2.70;;
27113;SDS011;14648;49.730;8.614;2023-04-03T02:05:05;4.97;;;2.63;;
27113;SDS011;14648;49.730;8.614;2023-04-03T02:07:31;2.50;;;2.30;;
27113;SDS011;14648;49.730;8.614;2023-04-03T02:09:57;2.70;;;2.30;;
27113;SDS011;14648;49.730;8.614;2023-04-03T02:12:22;2.33;;;2.10;;
27113;SDS011;14648;49.730;8.614;2023-04-03T02:14:48;2.20;;;2.00;;
27113;SDS011;14648;49.730;8.614;2023-04-03T02:17:14;2.27;;;2.10;;
27113;SDS011;14648;49.730;8.614;2023-04-03T02:19:40;2.10;;;2.00;;
27113;SDS011;14648;49.730;8.614;2023-04-03T02:22:06;2.90;;;2.70;;
27113;SDS011;14648;49.730;8.614;2023-04-03T02:24:32;2.40;;;2.20;;
27113;SDS011;14648;49.730;8.614;2023-04-03T02:26:57;2.90;;;2.60;;
27113;SDS011;14648;49.730;8.614;2023-04-03T02:29:23;4.70;;;2.67;;
27113;SDS011;14648;49.730;8.614;2023-04-03T02:31:49;5.03;;;2.13;;
27113;SDS011;14648;49.730;8.614;2023-04-03T02:34:16;2.80;;;2.40;;
27113;SDS011;14648;49.730;8.614;2023-04-03T02:36:42;2.00;;;1.90;;
27113;SDS011;14648;49.730;8.614;2023-04-03T02:39:07;3.47;;;2.50;;
27113;SDS011;14648;49.730;8.614;2023-04-03T02:41:34;3.40;;;2.97;;
27113;SDS011;14648;49.730;8.614;2023-04-03T02:44:01;2.50;;;2.30;;
27113;SDS011;14648;49.730;8.614;2023-04-03T02:46:27;2.40;;;2.20;;
27113;SDS011;14648;49.730;8.614;2023-04-03T02:48:53;2.00;;;1.90;;
27113;SDS011;14648;49.730;8.614;2023-04-03T02:51:19;2.93;;;2.60;;
27113;SDS011;14648;49.730;8.614;2023-04-03T02:53:45;3.80;;;1.80;;
27113;SDS011;14648;49.730;8.614;2023-04-03T02:56:10;2.13;;;2.03;;
27113;SDS011;14648;49.730;8.614;2023-04-03T02:58:36;2.73;;;2.43;;
27113;SDS011;14648;49.730;8.614;2023-04-03T03:01:02;2.47;;;2.27;;
27113;SDS011;14648;49.730;8.614;2023-04-03T03:03:28;2.20;;;2.00;;
27113;SDS011;14648;49.730;8.614;2023-04-03T03:06:04;2.47;;;1.80;;
27113;SDS011;14648;49.730;8.614;2023-04-03T03:08:39;5.27;;;2.80;;
27113;SDS011;14648;49.730;8.614;2023-04-03T03:11:06;4.23;;;2.80;;
27113;SDS011;14648;49.730;8.614;2023-04-03T03:13:32;2.47;;;1.90;;
27113;SDS011;14648;49.730;8.614;2023-04-03T03:15:58;2.43;;;2.23;;
27113;SDS011;14648;49.730;8.614;2023-04-03T03:18:24;2.50;;;2.40;;
27113;SDS011;14648;49.730;8.614;2023-04-03T03:20:53;2.33;;;2.20;;
27113;SDS011;14648;49.730;8.614;2023-04-03T03:23:22;5.90;;;2.67;;
27113;SDS011;14648;49.730;8.614;2023-04-03T03:25:54;2.30;;;2.10;;
27113;SDS011;14648;49.730;8.614;2023-04-03T03:28:25;2.53;;;2.33;;
27113;SDS011;14648;49.730;8.614;2023-04-03T03:30:51;3.17;;;2.27;;
27113;SDS011;14648;49.730;8.614;2023-04-03T03:33:17;4.77;;;2.63;;
27113;SDS011;14648;49.730;8.614;2023-04-03T03:35:43;2.53;;;2.43;;
27113;SDS011;14648;49.730;8.614;2023-04-03T03:38:10;2.43;;;2.27;;
27113;SDS011;14648;49.730;8.614;2023-04-03T03:40:35;6.23;;;2.30;;
27113;SDS011;14648;49.730;8.614;2023-04-03T03:43:01;7.53;;;2.70;;
27113;SDS011;14648;49.730;8.614;2023-04-03T03:45:27;3.33;;;2.33;;
27113;SDS011;14648;49.730;8.614;2023-04-03T03:47:53;2.60;;;2.50;;
27113;SDS011;14648;49.730;8.614;2023-04-03T03:50:21;4.50;;;3.10;;
27113;SDS011;14648;49.730;8.614;2023-04-03T03:52:47;2.27;;;2.17;;
27113;SDS011;14648;49.730;8.614;2023-04-03T03:55:13;2.50;;;2.30;;
27113;SDS011;14648;49.730;8.614;2023-04-03T03:57:39;3.97;;;2.40;;
27113;SDS011;14648;49.730;8.614;2023-04-03T04:00:05;2.83;;;2.43;;
27113;SDS011;14648;49.730;8.614;2023-04-03T04:02:32;5.03;;;2.80;;
27113;SDS011;14648;49.730;8.614;2023-04-03T04:04:58;2.87;;;2.67;;
27113;SDS011;14648;49.730;8.614;2023-04-03T04:07:23;2.83;;;2.60;;
27113;SDS011;14648;49.730;8.614;2023-04-03T04:09:49;2.53;;;2.30;;
27113;SDS011;14648;49.730;8.614;2023-04-03T04:12:15;2.67;;;2.47;;
27113;SDS011;14648;49.730;8.614;2023-04-03T04:14:41;3.10;;;2.80;;
27113;SDS011;14648;49.730;8.614;2023-04-03T04:17:07;2.93;;;2.73;;
27113;SDS011;14648;49.730;8.614;2023-04-03T04:19:32;4.03;;;3.03;;
27113;SDS011;14648;49.730;8.614;2023-04-03T04:21:58;2.33;;;1.93;;
27113;SDS011;14648;49.730;8.614;2023-04-03T04:24:24;3.57;;;2.70;;
27113;SDS011;14648;49.730;8.614;2023-04-03T04:26:49;4.80;;;2.40;;
27113;SDS011;14648;49.730;8.614;2023-04-03T04:29:15;4.03;;;2.90;;
27113;SDS011;14648;49.730;8.614;2023-04-03T04:31:41;3.30;;;2.40;;
27113;SDS011;14648;49.730;8.614;2023-04-03T04:34:07;4.00;;;2.67;;
27113;SDS011;14648;49.730;8.614;2023-04-03T04:36:33;7.90;;;3.43;;
27113;SDS011;14648;49.730;8.614;2023-04-03T04:38:58;3.17;;;2.97;;
27113;SDS011;14648;49.730;8.614;2023-04-03T04:41:24;5.50;;;3.00;;
27113;SDS011;14648;49.730;8.614;2023-04-03T04:43:51;4.30;;;3.93;;
27113;SDS011;14648;49.730;8.614;2023-04-03T04:46:17;5.60;;;3.30;;
27113;SDS011;14648;49.730;8.614;2023-04-03T04:48:43;5.00;;;3.10;;
27113;SDS011;14648;49.730;8.614;2023-04-03T04:51:10;2.83;;;2.60;;
27113;SDS011;14648;49.730;8.614;2023-04-03T04:53:36;5.90;;;2.93;;
27113;SDS011;14648;49.730;8.614;2023-04-03T04:56:02;3.73;;;2.90;;
27113;SDS011;14648;49.730;8.614;2023-04-03T04:58:28;7.30;;;2.90;;
27113;SDS011;14648;49.730;8.614;2023-04-03T05:01:04;9.90;;;2.40;;
27113;SDS011;14648;49.730;8.614;2023-04-03T05:03:32;2.80;;;2.60;;
27113;SDS011;14648;49.730;8.614;2023-04-03T05:05:58;3.90;;;2.80;;
27113;SDS011;14648;49.730;8.614;2023-04-03T05:08:24;2.70;;;2.27;;
27113;SDS011;14648;49.730;8.614;2023-04-03T05:10:50;4.40;;;2.30;;
27113;SDS011;14648;49.730;8.614;2023-04-03T05:13:18;9.80;;;2.30;;
27113;SDS011;14648;49.730;8.614;2023-04-03T05:15:44;3.43;;;2.70;;
27113;SDS011;14648;49.730;8.614;2023-04-03T05:18:11;5.57;;;2.10;;
27113;SDS011;14648;49.730;8.614;2023-04-03T05:20:37;5.70;;;2.43;;
27113;SDS011;14648;49.730;8.614;2023-04-03T05:23:03;3.97;;;3.03;;
27113;SDS011;14648;49.730;8.614;2023-04-03T05:25:29;2.73;;;2.20;;
27113;SDS011;14648;49.730;8.614;2023-04-03T05:27:55;6.87;;;2.33;;
27113;SDS011;14648;49.730;8.614;2023-04-03T05:30:20;4.03;;;2.57;;
27113;SDS011;14648;49.730;8.614;2023-04-03T05:32:47;5.30;;;2.00;;
27113;SDS011;14648;49.730;8.614;2023-04-03T05:35:12;4.80;;;2.50;;
27113;SDS011;14648;49.730;8.614;2023-04-03T05:37:38;3.57;;;2.37;;
27113;SDS011;14648;49.730;8.614;2023-04-03T05:40:05;4.77;;;3.67;;
27113;SDS011;14648;49.730;8.614;2023-04-03T05:42:32;5.90;;;2.70;;
27113;SDS011;14648;49.730;8.614;2023-04-03T05:44:57;3.23;;;2.37;;
27113;SDS011;14648;49.730;8.614;2023-04-03T05:47:23;3.10;;;1.90;;
27113;SDS011;14648;49.730;8.614;2023-04-03T05:49:49;2.70;;;2.50;;
27113;SDS011;14648;49.730;8.614;2023-04-03T05:52:23;8.70;;;2.30;;
27113;SDS011;14648;49.730;8.614;2023-04-03T05:54:53;4.80;;;2.63;;
27113;SDS011;14648;49.730;8.614;2023-04-03T05:57:19;2.80;;;2.20;;
27113;SDS011;14648;49.730;8.614;2023-04-03T05:59:46;2.57;;;2.37;;
27113;SDS011;14648;49.730;8.614;2023-04-03T06:02:13;4.40;;;2.67;;
27113;SDS011;14648;49.730;8.614;2023-04-03T06:04:43;3.20;;;2.27;;
27113;SDS011;14648;49.730;8.614;2023-04-03T06:07:13;2.60;;;2.40;;
27113;SDS011;14648;49.730;8.614;2023-04-03T06:09:46;6.40;;;1.80;;
27113;SDS011;14648;49.730;8.614;2023-04-03T06:12:12;5.13;;;2.20;;
27113;SDS011;14648;49.730;8.614;2023-04-03T06:14:38;5.30;;;2.23;;
27113;SDS011;14648;49.730;8.614;2023-04-03T06:17:04;2.10;;;1.90;;
27113;SDS011;14648;49.730;8.614;2023-04-03T06:19:31;2.70;;;2.10;;
27113;SDS011;14648;49.730;8.614;2023-04-03T06:21:57;4.20;;;1.97;;
27113;SDS011;14648;49.730;8.614;2023-04-03T06:24:22;2.37;;;2.17;;
27113;SDS011;14648;49.730;8.614;2023-04-03T06:26:50;3.60;;;2.10;;
27113;SDS011;14648;49.730;8.614;2023-04-03T06:29:17;8.83;;;1.77;;
27113;SDS011;14648;49.730;8.614;2023-04-03T06:31:45;2.57;;;1.80;;
27113;SDS011;14648;49.730;8.614;2023-04-03T06:34:11;3.23;;;2.20;;
27113;SDS011;14648;49.730;8.614;2023-04-03T06:36:38;2.93;;;2.67;;
27113;SDS011;14648;49.730;8.614;2023-04-03T06:39:05;4.60;;;2.13;;
27113;SDS011;14648;49.730;8.614;2023-04-03T06:41:32;3.07;;;2.10;;
27113;SDS011;14648;49.730;8.614;2023-04-03T06:43:58;6.03;;;2.57;;
27113;SDS011;14648;49.730;8.614;2023-04-03T06:46:25;2.17;;;2.07;;
27113;SDS011;14648;49.730;8.614;2023-04-03T06:48:52;2.17;;;1.60;;
27113;SDS011;14648;49.730;8.614;2023-04-03T06:53:48;7.13;;;2.60;;
27113;SDS011;14648;49.730;8.614;2023-04-03T06:56:15;11.10;;;6.43;;
27113;SDS011;14648;49.730;8.614;2023-04-03T06:58:42;9.77;;;5.07;;
27113;SDS011;14648;49.730;8.614;2023-04-03T07:01:09;2.33;;;2.20;;
27113;SDS011;14648;49.730;8.614;2023-04-03T07:03:37;5.23;;;2.53;;
27113;SDS011;14648;49.730;8.614;2023-04-03T07:06:03;3.47;;;2.67;;
27113;SDS011;14648;49.730;8.614;2023-04-03T07:08:32;5.90;;;2.33;;
27113;SDS011;14648;49.730;8.614;2023-04-03T07:10:59;3.63;;;2.20;;
27113;SDS011;14648;49.730;8.614;2023-04-03T07:13:25;8.00;;;2.40;;
27113;SDS011;14648;49.730;8.614;2023-04-03T07:15:51;5.90;;;2.33;;
27113;SDS011;14648;49.730;8.614;2023-04-03T07:18:17;3.20;;;2.53;;
27113;SDS011;14648;49.730;8.614;2023-04-03T07:20:44;2.80;;;2.50;;
27113;SDS011;14648;49.730;8.614;2023-04-03T07:23:10;4.17;;;2.57;;
27113;SDS011;14648;49.730;8.614;2023-04-03T07:25:36;4.10;;;2.13;;
27113;SDS011;14648;49.730;8.614;2023-04-03T07:28:07;3.63;;;1.97;;
27113;SDS011;14648;49.730;8.614;2023-04-03T07:30:33;2.53;;;2.00;;
27113;SDS011;14648;49.730;8.614;2023-04-03T07:32:59;3.73;;;2.10;;
27113;SDS011;14648;49.730;8.614;2023-04-03T07:35:26;3.03;;;1.77;;
27113;SDS011;14648;49.730;8.614;2023-04-03T07:37:52;6.03;;;2.20;;
27113;SDS011;14648;49.730;8.614;2023-04-03T07:40:18;6.37;;;2.17;;
27113;SDS011;14648;49.730;8.614;2023-04-03T07:42:44;2.40;;;1.87;;
27113;SDS011;14648;49.730;8.614;2023-04-03T07:45:09;2.70;;;1.90;;
27113;SDS011;14648;49.730;8.614;2023-04-03T07:47:35;5.60;;;1.83;;
27113;SDS011;14648;49.730;8.614;2023-04-03T07:50:01;3.07;;;1.73;;
27113;SDS011;14648;49.730;8.614;2023-04-03T07:52:27;3.07;;;1.90;;
27113;SDS011;14648;49.730;8.614;2023-04-03T07:54:53;5.23;;;1.57;;
27113;SDS011;14648;49.730;8.614;2023-04-03T07:57:19;3.87;;;1.80;;
27113;SDS011;14648;49.730;8.614;2023-04-03T07:59:44;3.80;;;1.90;;
27113;SDS011;14648;49.730;8.614;2023-04-03T08:02:11;4.00;;;2.00;;
27113;SDS011;14648;49.730;8.614;2023-04-03T08:04:37;2.73;;;1.53;;
27113;SDS011;14648;49.730;8.614;2023-04-03T08:07:03;3.00;;;1.63;;
27113;SDS011;14648;49.730;8.614;2023-04-03T08:09:29;3.43;;;1.60;;
27113;SDS011;14648;49.730;8.614;2023-04-03T08:11:56;6.23;;;2.37;;
27113;SDS011;14648;49.730;8.614;2023-04-03T08:14:23;4.93;;;2.00;;
27113;SDS011;14648;49.730;8.614;2023-04-03T08:16:49;6.17;;;1.80;;
27113;SDS011;14648;49.730;8.614;2023-04-03T08:19:15;6.33;;;1.37;;
27113;SDS011;14648;49.730;8.614;2023-04-03T08:21:43;2.57;;;2.10;;
27113;SDS011;14648;49.730;8.614;2023-04-03T08:24:10;2.60;;;1.20;;
27113;SDS011;14648;49.730;8.614;2023-04-03T08:26:35;4.13;;;1.90;;
27113;SDS011;14648;49.730;8.614;2023-04-03T08:29:01;5.03;;;1.47;;
27113;SDS011;14648;49.730;8.614;2023-04-03T08:31:27;2.40;;;1.60;;
27113;SDS011;14648;49.730;8.614;2023-04-03T08:33:53;2.30;;;1.10;;
27113;SDS011;14648;49.730;8.614;2023-04-03T08:36:26;2.50;;;1.03;;
27113;SDS011;14648;49.730;8.614;2023-04-03T08:38:55;1.57;;;1.33;;
27113;SDS011;14648;49.730;8.614;2023-04-03T08:44:14;2.27;;;1.40;;
27113;SDS011;14648;49.730;8.614;2023-04-03T08:49:44;2.40;;;1.07;;
27113;SDS011;14648;49.730;8.614;2023-04-03T08:52:58;2.10;;;1.63;;
27113;SDS011;14648;49.730;8.614;2023-04-03T09:00:59;2.90;;;1.20;;
27113;SDS011;14648;49.730;8.614;2023-04-03T09:03:44;3.63;;;1.00;;
27113;SDS011;14648;49.730;8.614;2023-04-03T09:06:13;8.13;;;1.70;;
27113;SDS011;14648;49.730;8.614;2023-04-03T09:11:47;4.00;;;1.33;;
27113;SDS011;14648;49.730;8.614;2023-04-03T09:14:44;4.03;;;1.60;;
27113;SDS011;14648;49.730;8.614;2023-04-03T09:20:18;5.83;;;1.47;;
27113;SDS011;14648;49.730;8.614;2023-04-03T09:22:52;1.87;;;1.30;;
27113;SDS011;14648;49.730;8.614;2023-04-03T09:25:32;3.77;;;1.13;;
27113;SDS011;14648;49.730;8.614;2023-04-03T09:28:04;2.17;;;1.10;;
27113;SDS011;14648;49.730;8.614;2023-04-03T09:30:34;2.70;;;1.30;;
27113;SDS011;14648;49.730;8.614;2023-04-03T09:33:00;13.73;;;2.00;;
27113;SDS011;14648;49.730;8.614;2023-04-03T09:35:34;3.07;;;1.33;;
27113;SDS011;14648;49.730;8.614;2023-04-03T09:40:37;4.37;;;1.23;;
27113;SDS011;14648;49.730;8.614;2023-04-03T09:45:52;1.57;;;0.90;;
27113;SDS011;14648;49.730;8.614;2023-04-03T09:48:21;0.63;;;0.60;;
27113;SDS011;14648;49.730;8.614;2023-04-03T09:56:05;1.20;;;1.10;;
27113;SDS011;14648;49.730;8.614;2023-04-03T09:59:29;1.03;;;0.90;;
27113;SDS011;14648;49.730;8.614;2023-04-03T10:01:41;2.47;;;1.00;;
27113;SDS011;14648;49.730;8.614;2023-04-03T10:04:22;1.93;;;0.90;;
27113;SDS011;14648;49.730;8.614;2023-04-03T10:06:52;5.93;;;0.90;;
27113;SDS011;14648;49.730;8.614;2023-04-03T10:09:27;10.57;;;1.27;;
27113;SDS011;14648;49.730;8.614;2023-04-03T10:12:09;2.30;;;1.13;;
27113;SDS011;14648;49.730;8.614;2023-04-03T10:14:57;4.00;;;1.47;;
27113;SDS011;14648;49.730;8.614;2023-04-03T10:18:27;2.10;;;1.10;;
27113;SDS011;14648;49.730;8.614;2023-04-03T10:20:35;1.90;;;1.50;;
27113;SDS011;14648;49.730;8.614;2023-04-03T10:34:45;1.70;;;1.10;;
27113;SDS011;14648;49.730;8.614;2023-04-03T10:37:14;3.27;;;1.30;;
27113;SDS011;14648;49.730;8.614;2023-04-03T10:53:36;3.40;;;1.43;;
27113;SDS011;14648;49.730;8.614;2023-04-03T10:56:14;2.30;;;1.30;;
27113;SDS011;14648;49.730;8.614;2023-04-03T11:01:55;2.10;;;1.40;;
27113;SDS011;14648;49.730;8.614;2023-04-03T11:04:30;4.80;;;1.23;;
27113;SDS011;14648;49.730;8.614;2023-04-03T11:07:02;2.30;;;1.30;;
27113;SDS011;14648;49.730;8.614;2023-04-03T11:09:37;1.67;;;1.10;;
27113;SDS011;14648;49.730;8.614;2023-04-03T11:12:23;1.30;;;1.00;;
27113;SDS011;14648;49.730;8.614;2023-04-03T11:15:13;5.47;;;1.47;;
27113;SDS011;14648;49.730;8.614;2023-04-03T11:17:47;1.20;;;1.10;;
27113;SDS011;14648;49.730;8.614;2023-04-03T11:20:21;2.07;;;1.20;;
27113;SDS011;14648;49.730;8.614;2023-04-03T11:22:59;2.43;;;1.23;;
27113;SDS011;14648;49.730;8.614;2023-04-03T11:25:29;1.00;;;0.80;;
27113;SDS011;14648;49.730;8.614;2023-04-03T11:28:02;1.50;;;1.40;;
27113;SDS011;14648;49.730;8.614;2023-04-03T11:38:55;1.73;;;0.90;;
27113;SDS011;14648;49.730;8.614;2023-04-03T11:41:33;1.63;;;1.07;;
27113;SDS011;14648;49.730;8.614;2023-04-03T11:44:03;2.20;;;1.23;;
27113;SDS011;14648;49.730;8.614;2023-04-03T11:46:53;1.90;;;1.20;;
27113;SDS011;14648;49.730;8.614;2023-04-03T12:05:51;1.77;;;1.27;;
27113;SDS011;14648;49.730;8.614;2023-04-03T12:16:22;2.50;;;1.47;;
27113;SDS011;14648;49.730;8.614;2023-04-03T12:29:54;1.30;;;1.20;;
27113;SDS011;14648;49.730;8.614;2023-04-03T12:32:41;2.30;;;1.27;;
27113;SDS011;14648;49.730;8.614;2023-04-03T12:35:37;2.20;;;1.40;;
27113;SDS011;14648;49.730;8.614;2023-04-03T12:41:54;2.30;;;1.40;;
27113;SDS011;14648;49.730;8.614;2023-04-03T12:45:13;3.90;;;1.07;;
27113;SDS011;14648;49.730;8.614;2023-04-03T12:47:45;2.30;;;1.10;;
27113;SDS011;14648;49.730;8.614;2023-04-03T12:50:31;3.67;;;1.60;;
27113;SDS011;14648;49.730;8.614;2023-04-03T12:53:01;4.00;;;1.53;;
27113;SDS011;14648;49.730;8.614;2023-04-03T12:55:35;1.83;;;1.67;;
27113;SDS011;14648;49.730;8.614;2023-04-03T12:58:17;6.93;;;1.40;;
27113;SDS011;14648;49.730;8.614;2023-04-03T13:01:02;1.77;;;1.13;;
27113;SDS011;14648;49.730;8.614;2023-04-03T13:03:44;1.57;;;1.47;;
27113;SDS011;14648;49.730;8.614;2023-04-03T13:06:21;1.27;;;1.10;;
27113;SDS011;14648;49.730;8.614;2023-04-03T13:08:55;8.33;;;2.33;;
27113;SDS011;14648;49.730;8.614;2023-04-03T13:11:25;4.50;;;1.53;;
27113;SDS011;14648;49.730;8.614;2023-04-03T13:14:05;1.40;;;1.30;;
27113;SDS011;14648;49.730;8.614;2023-04-03T13:19:39;1.63;;;1.27;;
27113;SDS011;14648;49.730;8.614;2023-04-03T13:24:55;1.40;;;1.30;;
27113;SDS011;14648;49.730;8.614;2023-04-03T13:27:25;1.63;;;1.53;;
27113;SDS011;14648;49.730;8.614;2023-04-03T13:29:53;2.20;;;1.60;;
27113;SDS011;14648;49.730;8.614;2023-04-03T13:32:23;3.87;;;1.10;;
27113;SDS011;14648;49.730;8.614;2023-04-03T13:34:52;1.43;;;1.20;;
27113;SDS011;14648;49.730;8.614;2023-04-03T13:37:22;1.27;;;1.17;;
27113;SDS011;14648;49.730;8.614;2023-04-03T13:42:31;1.80;;;1.67;;
27113;SDS011;14648;49.730;8.614;2023-04-03T13:45:18;1.80;;;1.10;;
27113;SDS011;14648;49.730;8.614;2023-04-03T13:50:58;1.53;;;1.43;;
27113;SDS011;14648;49.730;8.614;2023-04-03T13:53:29;1.40;;;1.30;;
27113;SDS011;14648;49.730;8.614;2023-04-03T13:58:29;3.00;;;1.60;;
27113;SDS011;14648;49.730;8.614;2023-04-03T14:01:06;3.20;;;1.40;;
27113;SDS011;14648;49.730;8.614;2023-04-03T14:03:37;2.10;;;1.30;;
27113;SDS011;14648;49.730;8.614;2023-04-03T14:06:16;8.73;;;1.40;;
27113;SDS011;14648;49.730;8.614;2023-04-03T14:08:43;3.23;;;1.47;;
27113;SDS011;14648;49.730;8.614;2023-04-03T14:11:21;4.70;;;1.50;;
27113;SDS011;14648;49.730;8.614;2023-04-03T14:13:49;2.80;;;1.37;;
27113;SDS011;14648;49.730;8.614;2023-04-03T14:16:19;5.30;;;1.50;;
27113;SDS011;14648;49.730;8.614;2023-04-03T14:18:50;1.77;;;1.17;;
27113;SDS011;14648;49.730;8.614;2023-04-03T14:21:17;3.63;;;1.30;;
27113;SDS011;14648;49.730;8.614;2023-04-03T14:23:45;1.97;;;1.30;;
27113;SDS011;14648;49.730;8.614;2023-04-03T14:26:21;1.37;;;1.20;;
27113;SDS011;14648;49.730;8.614;2023-04-03T14:28:51;1.80;;;1.23;;
27113;SDS011;14648;49.730;8.614;2023-04-03T14:31:19;1.37;;;0.80;;
27113;SDS011;14648;49.730;8.614;2023-04-03T14:33:46;2.00;;;1.07;;
27113;SDS011;14648;49.730;8.614;2023-04-03T14:36:17;2.00;;;1.23;;
27113;SDS011;14648;49.730;8.614;2023-04-03T14:38:46;1.77;;;1.40;;
27113;SDS011;14648;49.730;8.614;2023-04-03T14:41:15;3.07;;;1.40;;
27113;SDS011;14648;49.730;8.614;2023-04-03T14:43:44;1.50;;;1.40;;
27113;SDS011;14648;49.730;8.614;2023-04-03T14:46:22;1.57;;;1.00;;
27113;SDS011;14648;49.730;8.614;2023-04-03T14:48:56;1.30;;;1.10;;
27113;SDS011;14648;49.730;8.614;2023-04-03T14:51:22;1.30;;;1.20;;
27113;SDS011;14648;49.730;8.614;2023-04-03T14:53:48;2.03;;;1.00;;
27113;SDS011;14648;49.730;8.614;2023-04-03T14:56:19;3.73;;;1.50;;
27113;SDS011;14648;49.730;8.614;2023-04-03T14:58:55;1.43;;;1.20;;
27113;SDS011;14648;49.730;8.614;2023-04-03T15:01:24;2.13;;;1.10;;
27113;SDS011;14648;49.730;8.614;2023-04-03T15:03:52;2.10;;;1.20;;
27113;SDS011;14648;49.730;8.614;2023-04-03T15:06:18;2.17;;;1.30;;
27113;SDS011;14648;49.730;8.614;2023-04-03T15:08:45;2.70;;;1.10;;
27113;SDS011;14648;49.730;8.614;2023-04-03T15:11:14;2.13;;;1.53;;
27113;SDS011;14648;49.730;8.614;2023-04-03T15:13:43;2.33;;;1.33;;
27113;SDS011;14648;49.730;8.614;2023-04-03T15:16:16;2.33;;;1.60;;
27113;SDS011;14648;49.730;8.614;2023-04-03T15:18:46;1.80;;;0.90;;
27113;SDS011;14648;49.730;8.614;2023-04-03T15:21:15;2.20;;;1.13;;
27113;SDS011;14648;49.730;8.614;2023-04-03T15:23:41;2.37;;;2.10;;
27113;SDS011;14648;49.730;8.614;2023-04-03T15:26:07;2.30;;;1.30;;
27113;SDS011;14648;49.730;8.614;2023-04-03T15:28:39;3.00;;;1.40;;
27113;SDS011;14648;49.730;8.614;2023-04-03T15:31:07;1.13;;;1.03;;
27113;SDS011;14648;49.730;8.614;2023-04-03T15:33:34;0.87;;;0.87;;
27113;SDS011;14648;49.730;8.614;2023-04-03T15:36:01;2.20;;;1.43;;
27113;SDS011;14648;49.730;8.614;2023-04-03T15:38:27;2.10;;;1.90;;
27113;SDS011;14648;49.730;8.614;2023-04-03T15:40:53;4.07;;;2.60;;
27113;SDS011;14648;49.730;8.614;2023-04-03T15:43:20;1.47;;;1.37;;
27113;SDS011;14648;49.730;8.614;2023-04-03T15:45:49;3.63;;;1.10;;
27113;SDS011;14648;49.730;8.614;2023-04-03T15:48:15;3.43;;;1.57;;
27113;SDS011;14648;49.730;8.614;2023-04-03T15:50:42;1.20;;;1.10;;
27113;SDS011;14648;49.730;8.614;2023-04-03T15:53:08;1.70;;;1.50;;
27113;SDS011;14648;49.730;8.614;2023-04-03T15:55:35;1.60;;;1.23;;
27113;SDS011;14648;49.730;8.614;2023-04-03T15:58:03;1.67;;;1.10;;
27113;SDS011;14648;49.730;8.614;2023-04-03T16:00:29;1.77;;;1.50;;
27113;SDS011;14648;49.730;8.614;2023-04-03T16:02:57;2.60;;;1.93;;
27113;SDS011;14648;49.730;8.614;2023-04-03T16:05:29;2.03;;;1.57;;
27113;SDS011;14648;49.730;8.614;2023-04-03T16:07:55;2.50;;;1.53;;
27113;SDS011;14648;49.730;8.614;2023-04-03T16:10:25;1.60;;;1.20;;
27113;SDS011;14648;49.730;8.614;2023-04-03T16:12:52;1.47;;;1.37;;
27113;SDS011;14648;49.730;8.614;2023-04-03T16:15:17;1.00;;;0.90;;
27113;SDS011;14648;49.730;8.614;2023-04-03T16:17:47;2.20;;;1.40;;
27113;SDS011;14648;49.730;8.614;2023-04-03T16:20:13;1.80;;;1.63;;
27113;SDS011;14648;49.730;8.614;2023-04-03T16:22:40;1.23;;;1.13;;
27113;SDS011;14648;49.730;8.614;2023-04-03T16:25:06;3.17;;;1.50;;
27113;SDS011;14648;49.730;8.614;2023-04-03T16:27:33;7.97;;;1.83;;
27113;SDS011;14648;49.730;8.614;2023-04-03T16:29:59;1.63;;;1.40;;
27113;SDS011;14648;49.730;8.614;2023-04-03T16:32:26;4.30;;;1.50;;
27113;SDS011;14648;49.730;8.614;2023-04-03T16:34:54;1.20;;;1.10;;
27113;SDS011;14648;49.730;8.614;2023-04-03T16:37:21;1.20;;;1.13;;
27113;SDS011;14648;49.730;8.614;2023-04-03T16:39:46;1.43;;;1.10;;
27113;SDS011;14648;49.730;8.614;2023-04-03T16:42:12;1.63;;;1.40;;
27113;SDS011;14648;49.730;8.614;2023-04-03T16:44:38;3.40;;;1.83;;
27113;SDS011;14648;49.730;8.614;2023-04-03T16:47:04;2.10;;;1.40;;
27113;SDS011;14648;49.730;8.614;2023-04-03T16:49:32;2.07;;;1.47;;
27113;SDS011;14648;49.730;8.614;2023-04-03T16:51:59;2.47;;;1.70;;
27113;SDS011;14648;49.730;8.614;2023-04-03T16:54:26;3.97;;;1.93;;
27113;SDS011;14648;49.730;8.614;2023-04-03T16:56:52;2.17;;;1.57;;
27113;SDS011;14648;49.730;8.614;2023-04-03T16:59:18;5.70;;;3.37;;
27113;SDS011;14648;49.730;8.614;2023-04-03T17:01:43;1.87;;;1.40;;
27113;SDS011;14648;49.730;8.614;2023-04-03T17:04:09;3.23;;;1.80;;
27113;SDS011;14648;49.730;8.614;2023-04-03T17:06:35;1.63;;;1.47;;